Time;durP1;ratioP1;P1;durP2;ratioP2;P2;SDS_P1;SDS_P2;PMS_P1;PMS_P2;Temp;Humidity;BMP_temperature;BMP_pressure;BME280_temperature;BME280_humidity;BME280_pressure;Samples;Min_cycle;Max_cycle;Signal;HPM_P1;HPM_P2
2022/03/19 00:02:14;;;;;;;9.80;7.40;;;;;;-10129.49;;;;106423;1284;65667;-31
2022/03/19 00:04:41;;;;;;;10.30;6.60;;;;;;-10129.49;;;;106293;1285;65719;-32
2022/03/19 00:07:08;;;;;;;10.10;6.40;;;;;;-10378.10;;;;106313;1284;65724;-32
2022/03/19 00:09:35;;;;;;;9.40;6.70;;;;;;-10253.80;;;;106348;1285;65841;-33
2022/03/19 00:12:04;;;;;;;10.10;6.90;;;;;;-10129.49;;;;106425;1284;65807;-33
2022/03/19 00:14:31;;;;;;;9.40;6.30;;;;;;-10253.80;;;;106400;1284;66137;-26
2022/03/19 00:16:59;;;;;;;10.00;6.60;;;;;;-10005.19;;;;106280;1285;65633;-28
2022/03/19 00:19:29;;;;;;;8.00;6.10;;;;;;-10005.19;;;;106403;1284;65578;-27
2022/03/19 00:21:56;;;;;;;8.90;6.60;;;;;;-10129.49;;;;106424;1284;65842;-27
2022/03/19 00:24:24;;;;;;;9.10;6.80;;;;;;-10378.10;;;;106328;1285;65720;-32
2022/03/19 00:26:51;;;;;;;9.90;6.70;;;;;;-10005.19;;;;106428;1284;65721;-32
2022/03/19 00:29:17;;;;;;;9.50;7.20;;;;;;-10129.49;;;;106408;1284;65731;-32
2022/03/19 00:31:44;;;;;;;9.40;6.30;;;;;;-10005.19;;;;106320;1285;65648;-32
2022/03/19 00:34:12;;;;;;;9.00;6.30;;;;;;-10253.80;;;;106424;1284;65689;-32
2022/03/19 00:36:39;;;;;;;9.00;6.90;;;;;;-10129.49;;;;106443;1284;65710;-32
2022/03/19 00:39:07;;;;;;;8.80;6.60;;;;;;-10378.10;;;;106416;1284;65725;-32
2022/03/19 00:41:35;;;;;;;8.50;6.70;;;;;;-10253.80;;;;106415;1285;65818;-32
2022/03/19 00:44:02;;;;;;;9.90;7.00;;;;;;-10129.49;;;;106389;1284;65724;-30
2022/03/19 00:46:30;;;;;;;10.60;6.90;;;;;;-10253.80;;;;106415;1284;65630;-32
2022/03/19 00:48:59;;;;;;;9.20;7.10;;;;;;-10378.10;;;;106415;1284;65620;-28
2022/03/19 00:51:26;;;;;;;10.20;6.50;;;;;;-10253.80;;;;106334;1285;65719;-28
2022/03/19 00:53:54;;;;;;;9.00;6.90;;;;;;-10129.49;;;;106414;1284;65625;-33
2022/03/19 00:56:21;;;;;;;9.90;7.20;;;;;;-10129.49;;;;106351;1285;65577;-28
2022/03/19 00:58:48;;;;;;;10.50;7.00;;;;;;-10129.49;;;;106415;1284;65751;-27
2022/03/19 01:01:15;;;;;;;9.40;7.30;;;;;;-10129.49;;;;106360;1285;65559;-32
2022/03/19 01:03:42;;;;;;;9.20;6.60;;;;;;-10129.49;;;;106028;1286;66822;-31
2022/03/19 01:06:10;;;;;;;10.10;7.10;;;;;;-10378.10;;;;106394;1284;66386;-32
2022/03/19 01:08:37;;;;;;;8.00;6.40;;;;;;-10253.80;;;;106344;1284;66791;-32
2022/03/19 01:11:04;;;;;;;8.90;6.80;;;;;;-10129.49;;;;106417;1284;65676;-28
2022/03/19 01:13:31;;;;;;;10.20;7.40;;;;;;-10005.19;;;;106350;1285;65604;-28
2022/03/19 01:15:58;;;;;;;9.10;6.80;;;;;;-10005.19;;;;106337;1285;65808;-32
2022/03/19 01:18:25;;;;;;;10.10;6.60;;;;;;-10253.80;;;;106397;1284;66272;-32
2022/03/19 01:20:53;;;;;;;9.30;7.00;;;;;;-10129.49;;;;106387;1284;65842;-27
2022/03/19 01:23:20;;;;;;;8.80;7.00;;;;;;-10129.49;;;;106431;1284;65660;-27
2022/03/19 01:25:48;;;;;;;8.90;6.50;;;;;;-10005.19;;;;106352;1285;66906;-32
2022/03/19 01:28:15;;;;;;;9.40;7.60;;;;;;-10253.80;;;;106044;1285;65621;-32
2022/03/19 01:30:42;;;;;;;10.00;6.90;;;;;;-10378.10;;;;106422;1284;65616;-33
2022/03/19 01:33:09;;;;;;;9.10;7.10;;;;;;-10253.80;;;;106370;1284;65606;-33
2022/03/19 01:35:36;;;;;;;10.20;7.10;;;;;;-10129.49;;;;106418;1284;65744;-38
2022/03/19 01:38:04;;;;;;;10.80;8.00;;;;;;-10253.80;;;;106423;1284;65617;-32
2022/03/19 01:40:32;;;;;;;9.30;6.90;;;;;;-10378.10;;;;106423;1284;65722;-32
2022/03/19 01:43:00;;;;;;;10.60;7.00;;;;;;-10129.49;;;;106399;1284;65598;-32
2022/03/19 01:45:28;;;;;;;10.20;7.20;;;;;;-10129.49;;;;106300;1285;65583;-32
2022/03/19 01:47:56;;;;;;;9.90;7.00;;;;;;-10005.19;;;;106226;1286;65783;-36
2022/03/19 01:50:26;;;;;;;11.50;7.60;;;;;;-10129.49;;;;106423;1284;65651;-28
2022/03/19 01:52:54;;;;;;;9.90;7.40;;;;;;-10253.80;;;;106394;1285;65560;-29
2022/03/19 01:55:27;;;;;;;10.50;7.50;;;;;;-10129.49;;;;106428;1284;65762;-31
2022/03/19 01:57:56;;;;;;;10.90;7.70;;;;;;-10005.19;;;;106403;1284;65757;-28
2022/03/19 02:00:24;;;;;;;11.60;8.20;;;;;;-10129.49;;;;106358;1285;65823;-32
2022/03/19 02:02:53;;;;;;;12.00;8.30;;;;;;-10253.80;;;;106333;1285;65697;-32
2022/03/19 02:05:25;;;;;;;12.70;8.30;;;;;;-10378.10;;;;106393;1284;66081;-32
2022/03/19 02:07:53;;;;;;;12.40;7.90;;;;;;-10253.80;;;;106357;1285;65598;-32
2022/03/19 02:10:22;;;;;;;11.90;7.60;;;;;;-10129.49;;;;106402;1284;65811;-30
2022/03/19 02:12:52;;;;;;;11.90;7.90;;;;;;-10129.49;;;;106416;1284;65753;-28
2022/03/19 02:15:20;;;;;;;11.50;8.60;;;;;;-10129.49;;;;106378;1284;65734;-33
2022/03/19 02:17:48;;;;;;;13.00;8.60;;;;;;-10502.40;;;;106358;1284;65605;-32
2022/03/19 02:20:16;;;;;;;13.30;8.70;;;;;;-10129.49;;;;106437;1284;66169;-28
2022/03/19 02:25:34;;;;;;;15.70;9.30;;;;;;-10129.49;;;;106313;1285;65620;-44
2022/03/19 02:25:36;;;;;;;13.10;8.70;;;;;;-10005.19;;;;106435;1284;65720;-30
2022/03/19 02:28:05;;;;;;;13.40;9.00;;;;;;-10129.49;;;;106051;1286;66646;-33
2022/03/19 02:30:33;;;;;;;13.00;8.20;;;;;;-10253.80;;;;106423;1284;65732;-32
2022/03/19 02:33:00;;;;;;;13.00;9.30;;;;;;-10005.19;;;;106381;1284;65622;-33
2022/03/19 02:35:27;;;;;;;14.00;9.20;;;;;;-10129.49;;;;106240;1285;65686;-34
2022/03/19 02:37:55;;;;;;;14.20;10.20;;;;;;-10253.80;;;;106396;1284;65665;-33
2022/03/19 02:40:22;;;;;;;13.30;8.30;;;;;;-10253.80;;;;106378;1284;65614;-34
2022/03/19 02:42:52;;;;;;;15.90;8.90;;;;;;-10129.49;;;;106299;1285;65704;-33
2022/03/19 02:45:22;;;;;;;11.70;8.80;;;;;;-10129.49;;;;106412;1284;64406;-32
2022/03/19 02:47:59;;;;;;;15.60;10.10;;;;;;-10129.49;;;;106413;1285;65692;-33
2022/03/19 02:50:36;;;;;;;14.40;9.30;;;;;;-10129.49;;;;106426;1284;65786;-33
2022/03/19 02:53:07;;;;;;;14.00;8.70;;;;;;-10129.49;;;;106048;1286;65746;-33
2022/03/19 02:55:39;;;;;;;13.30;9.10;;;;;;-10005.19;;;;106384;1284;65698;-32
2022/03/19 02:58:08;;;;;;;14.10;9.20;;;;;;-10378.10;;;;106393;1283;65579;-33
2022/03/19 03:00:38;;;;;;;13.20;9.90;;;;;;-10253.80;;;;106365;1284;65603;-31
2022/03/19 03:03:05;;;;;;;12.50;8.50;;;;;;-10502.40;;;;106417;1284;65870;-27
2022/03/19 03:05:36;;;;;;;14.30;9.60;;;;;;-10005.19;;;;106393;1284;65624;-27
2022/03/19 03:08:04;;;;;;;13.30;9.20;;;;;;-10253.80;;;;106379;1284;65842;-28
2022/03/19 03:10:32;;;;;;;12.80;9.00;;;;;;-10129.49;;;;106330;1285;66312;-28
2022/03/19 03:12:59;;;;;;;14.50;9.80;;;;;;-10253.80;;;;106404;1284;65612;-42
2022/03/19 03:15:27;;;;;;;13.20;8.80;;;;;;-10253.80;;;;106246;1284;65725;-36
2022/03/19 03:17:55;;;;;;;14.00;9.70;;;;;;-10005.19;;;;106222;1285;65653;-32
2022/03/19 03:20:22;;;;;;;13.10;9.10;;;;;;-10005.19;;;;106175;1285;65716;-32
2022/03/19 03:22:50;;;;;;;14.00;10.10;;;;;;-10129.49;;;;106405;1284;65641;-41
2022/03/19 03:25:17;;;;;;;14.70;9.00;;;;;;-10129.49;;;;106353;1284;65733;-27
2022/03/19 03:27:46;;;;;;;14.40;9.70;;;;;;-10005.19;;;;106401;1284;65614;-27
2022/03/19 03:30:14;;;;;;;13.20;9.50;;;;;;-10129.49;;;;106302;1285;65624;-28
2022/03/19 03:32:41;;;;;;;15.10;9.90;;;;;;-10378.10;;;;106375;1284;65814;-27
2022/03/19 03:35:09;;;;;;;15.30;10.10;;;;;;-10005.19;;;;106031;1286;65722;-28
2022/03/19 03:37:36;;;;;;;16.40;11.10;;;;;;-10253.80;;;;106243;1284;65558;-28
2022/03/19 03:40:05;;;;;;;16.50;11.20;;;;;;-10253.80;;;;106317;1285;65722;-33
2022/03/19 03:42:32;;;;;;;14.70;10.60;;;;;;-10129.49;;;;106310;1285;65716;-32
2022/03/19 03:44:59;;;;;;;15.40;10.40;;;;;;-10253.80;;;;106368;1284;65765;-28
2022/03/19 03:47:26;;;;;;;14.00;11.10;;;;;;-10005.19;;;;106382;1283;65594;-27
2022/03/19 03:49:54;;;;;;;13.90;10.20;;;;;;-10129.49;;;;106386;1284;65709;-27
2022/03/19 03:52:22;;;;;;;13.00;10.30;;;;;;-10129.49;;;;106402;1285;65868;-27
2022/03/19 03:54:49;;;;;;;13.90;9.90;;;;;;-10129.49;;;;106187;1285;65747;-32
2022/03/19 03:57:16;;;;;;;14.20;10.60;;;;;;-10129.49;;;;106377;1284;65603;-32
2022/03/19 03:59:44;;;;;;;16.90;12.10;;;;;;-10253.80;;;;106407;1284;65780;-28
2022/03/19 04:02:11;;;;;;;17.30;11.30;;;;;;-10253.80;;;;106254;1285;65569;-28
2022/03/19 04:04:38;;;;;;;14.60;11.20;;;;;;-10129.49;;;;106219;1288;65658;-31
2022/03/19 04:07:06;;;;;;;15.70;11.30;;;;;;-10129.49;;;;106371;1284;66174;-30
2022/03/19 04:09:33;;;;;;;14.40;10.90;;;;;;-10253.80;;;;106318;1285;65614;-28
2022/03/19 04:12:03;;;;;;;17.00;11.40;;;;;;-10005.19;;;;106384;1284;65791;-28
2022/03/19 04:14:30;;;;;;;16.10;11.60;;;;;;-10253.80;;;;106373;1284;65594;-32
2022/03/19 04:16:57;;;;;;;17.90;12.30;;;;;;-10253.80;;;;106064;1287;65834;-33
2022/03/19 04:19:25;;;;;;;15.90;11.80;;;;;;-10253.80;;;;106394;1284;65777;-41
2022/03/19 04:21:52;;;;;;;15.20;12.00;;;;;;-10253.80;;;;106184;1284;66453;-33
2022/03/19 04:24:20;;;;;;;16.80;11.90;;;;;;-10253.80;;;;106378;1285;65715;-33
2022/03/19 04:26:47;;;;;;;17.60;12.90;;;;;;-10253.80;;;;106113;1284;353522;-32
2022/03/19 04:29:14;;;;;;;16.20;12.50;;;;;;-10129.49;;;;106398;1284;65615;-28
2022/03/19 04:31:41;;;;;;;17.50;13.50;;;;;;-10378.10;;;;106392;1284;65738;-28
2022/03/19 04:34:08;;;;;;;20.50;13.20;;;;;;-10253.80;;;;106308;1284;66275;-31
2022/03/19 04:36:38;;;;;;;20.10;14.00;;;;;;-10005.19;;;;106379;1284;65702;-32
2022/03/19 04:39:07;;;;;;;19.20;14.50;;;;;;-10253.80;;;;106384;1284;65594;-32
2022/03/19 04:41:37;;;;;;;19.30;14.20;;;;;;-10129.49;;;;106403;1286;65562;-41
2022/03/19 04:44:08;;;;;;;18.60;13.90;;;;;;-10253.80;;;;106348;1285;65572;-37
2022/03/19 04:46:36;;;;;;;18.30;14.70;;;;;;-10129.49;;;;106305;1285;65624;-33
2022/03/19 04:49:04;;;;;;;19.30;15.10;;;;;;-10253.80;;;;106240;1288;65730;-28
2022/03/19 04:51:34;;;;;;;18.40;13.90;;;;;;-10378.10;;;;106368;1284;65719;-27
2022/03/19 04:54:02;;;;;;;20.10;15.00;;;;;;-10005.19;;;;106407;1284;65620;-28
2022/03/19 04:56:31;;;;;;;20.10;15.30;;;;;;-10253.80;;;;106108;1284;65616;-27
2022/03/19 04:59:00;;;;;;;19.80;15.90;;;;;;-10129.49;;;;106412;1284;65621;-27
2022/03/19 05:01:30;;;;;;;18.90;15.00;;;;;;-10253.80;;;;106383;1284;66001;-27
2022/03/19 05:03:58;;;;;;;21.20;16.60;;;;;;-10378.10;;;;106303;1284;65577;-28
2022/03/19 05:06:25;;;;;;;21.10;15.30;;;;;;-10253.80;;;;106333;1286;65668;-27
2022/03/19 05:11:41;;;;;;;20.70;15.90;;;;;;-10253.80;;;;106023;1284;65614;-28
2022/03/19 05:14:09;;;;;;;21.40;15.90;;;;;;-10253.80;;;;106237;1285;65580;-31
2022/03/19 05:16:37;;;;;;;23.80;16.60;;;;;;-10129.49;;;;106409;1284;65576;-32
2022/03/19 05:19:06;;;;;;;20.50;16.20;;;;;;-10502.40;;;;106321;1285;65693;-28
2022/03/19 05:21:34;;;;;;;21.20;17.10;;;;;;-10005.19;;;;106327;1284;65731;-27
2022/03/19 05:24:01;;;;;;;21.90;16.50;;;;;;-10378.10;;;;106314;1285;65584;-31
2022/03/19 05:26:28;;;;;;;21.80;16.80;;;;;;-10378.10;;;;106369;1284;65654;-32
2022/03/19 05:28:56;;;;;;;22.40;17.80;;;;;;-10253.80;;;;106323;1285;66867;-32
2022/03/19 05:31:25;;;;;;;23.40;17.80;;;;;;-10253.80;;;;106440;1284;65778;-32
2022/03/19 05:36:39;;;;;;;21.70;17.30;;;;;;-10378.10;;;;106370;1284;65584;-27
2022/03/19 05:39:07;;;;;;;21.60;16.90;;;;;;-10253.80;;;;106390;1284;65611;-27
2022/03/19 05:41:34;;;;;;;21.20;17.30;;;;;;-10253.80;;;;106385;1286;65726;-27
2022/03/19 05:44:01;;;;;;;22.50;17.50;;;;;;-10129.49;;;;106376;1283;65631;-27
2022/03/19 05:46:28;;;;;;;20.70;16.70;;;;;;-10129.49;;;;106392;1286;65678;-27
2022/03/19 05:48:55;;;;;;;23.90;17.30;;;;;;-10253.80;;;;106252;1284;65598;-28
2022/03/19 05:51:23;;;;;;;23.30;18.50;;;;;;-10005.19;;;;106395;1284;65720;-27
2022/03/19 05:53:50;;;;;;;24.00;18.50;;;;;;-10253.80;;;;106357;1285;65693;-27
2022/03/19 05:56:18;;;;;;;25.20;19.20;;;;;;-10005.19;;;;106244;1284;65710;-27
2022/03/19 05:58:45;;;;;;;22.10;18.90;;;;;;-10378.10;;;;106377;1284;65649;-27
2022/03/19 06:01:12;;;;;;;24.10;17.70;;;;;;-10253.80;;;;105929;1286;66457;-27
2022/03/19 06:03:40;;;;;;;25.80;19.80;;;;;;-10253.80;;;;106366;1284;65585;-27
2022/03/19 06:06:07;;;;;;;27.40;20.40;;;;;;-10253.80;;;;106394;1284;65679;-32
2022/03/19 06:08:34;;;;;;;26.00;20.60;;;;;;-10129.49;;;;106262;1285;65639;-32
2022/03/19 06:11:01;;;;;;;24.60;19.60;;;;;;-10129.49;;;;106275;1286;65586;-27
2022/03/19 06:13:29;;;;;;;25.80;20.50;;;;;;-10129.49;;;;106362;1285;65730;-25
2022/03/19 06:15:56;;;;;;;26.70;21.90;;;;;;-10253.80;;;;106286;1286;65733;-32
2022/03/19 06:18:26;;;;;;;27.60;21.10;;;;;;-10378.10;;;;106217;1285;66160;-32
2022/03/19 06:20:53;;;;;;;29.10;22.30;;;;;;-10129.49;;;;106377;1284;66000;-27
2022/03/19 06:23:20;;;;;;;27.00;21.90;;;;;;-10005.19;;;;106239;1286;65378;-27
2022/03/19 06:25:49;;;;;;;28.40;22.30;;;;;;-10502.40;;;;106353;1284;65718;-27
2022/03/19 06:28:17;;;;;;;26.60;22.00;;;;;;-10378.10;;;;106338;1284;65683;-28
2022/03/19 06:30:44;;;;;;;29.60;22.90;;;;;;-10129.49;;;;106339;1284;64410;-30
2022/03/19 06:33:12;;;;;;;26.50;21.80;;;;;;-10005.19;;;;106104;1284;65742;-26
2022/03/19 06:38:30;;;;;;;28.20;22.50;;;;;;-10502.40;;;;106278;1284;65610;-28
2022/03/19 06:40:59;;;;;;;29.90;22.60;;;;;;-10129.49;;;;106225;1285;65720;-29
2022/03/19 06:43:27;;;;;;;30.90;22.30;;;;;;-10005.19;;;;106365;1284;65614;-27
2022/03/19 06:45:57;;;;;;;31.30;23.10;;;;;;-10253.80;;;;106385;1284;65721;-27
2022/03/19 06:48:25;;;;;;;32.10;22.70;;;;;;-10253.80;;;;106181;1286;65797;-24
2022/03/19 06:50:54;;;;;;;29.00;23.20;;;;;;-10005.19;;;;106262;1284;66450;-31
2022/03/19 06:53:22;;;;;;;26.90;22.00;;;;;;-10005.19;;;;106224;1284;65710;-31
2022/03/19 06:55:51;;;;;;;29.50;24.80;;;;;;-10129.49;;;;105994;1287;65703;-25
2022/03/19 06:58:20;;;;;;;29.80;23.90;;;;;;-10253.80;;;;106273;1285;65654;-26
2022/03/19 07:00:50;;;;;;;30.50;24.20;;;;;;-10129.49;;;;106348;1284;66407;-29
2022/03/19 07:03:17;;;;;;;29.10;23.10;;;;;;-10129.49;;;;106246;1287;65613;-28
2022/03/19 07:05:44;;;;;;;30.10;23.60;;;;;;-10129.49;;;;106197;1286;65697;-28
2022/03/19 07:08:12;;;;;;;29.60;23.90;;;;;;-10129.49;;;;106327;1284;65625;-27
2022/03/19 07:10:40;;;;;;;30.50;23.90;;;;;;-10129.49;;;;106352;1284;65788;-28
2022/03/19 07:13:07;;;;;;;27.60;23.80;;;;;;-10253.80;;;;106252;1284;65650;-28
2022/03/19 07:15:35;;;;;;;28.50;23.30;;;;;;-10129.49;;;;106283;1284;65610;-27
2022/03/19 07:18:03;;;;;;;30.10;23.40;;;;;;-10129.49;;;;106261;1285;65638;-27
2022/03/19 07:20:31;;;;;;;28.60;22.70;;;;;;-10502.40;;;;106332;1284;65590;-32
2022/03/19 07:23:01;;;;;;;28.90;22.90;;;;;;-10129.49;;;;106248;1285;66300;-32
2022/03/19 07:25:37;;;;;;;28.50;23.00;;;;;;-10129.49;;;;106035;1287;65317;-27
2022/03/19 07:28:14;;;;;;;30.40;23.40;;;;;;-10005.19;;;;106021;1287;65629;-28
2022/03/19 07:30:41;;;;;;;28.00;22.50;;;;;;-10005.19;;;;106003;1287;65783;-26
2022/03/19 07:33:11;;;;;;;26.80;22.10;;;;;;-10129.49;;;;106238;1287;65760;-27
2022/03/19 07:35:40;;;;;;;28.60;22.60;;;;;;-10129.49;;;;106246;1284;65686;-33
2022/03/19 07:38:09;;;;;;;26.70;21.30;;;;;;-10005.19;;;;106119;1285;65596;-39
2022/03/19 07:43:25;;;;;;;27.20;21.90;;;;;;-10378.10;;;;107913;1282;64084;-33
2022/03/19 07:45:53;;;;;;;28.50;21.90;;;;;;-10129.49;;;;107158;1284;65691;-27
2022/03/19 07:48:20;;;;;;;27.80;22.40;;;;;;-10129.49;;;;106038;1285;65783;-27
2022/03/19 07:50:48;;;;;;;28.40;23.00;;;;;;-10129.49;;;;106490;1284;65623;-34
2022/03/19 07:53:15;;;;;;;26.40;21.60;;;;;;-10253.80;;;;107640;1285;63640;-32
2022/03/19 07:55:43;;;;;;;26.00;21.70;;;;;;-10005.19;;;;106230;1284;65733;-34
2022/03/19 07:58:10;;;;;;;26.40;21.60;;;;;;-10005.19;;;;106345;1284;65735;-36
2022/03/19 08:00:37;;;;;;;27.00;21.30;;;;;;-10129.49;;;;106195;1287;65739;-29
2022/03/19 08:03:05;;;;;;;27.70;22.20;;;;;;-10129.49;;;;106269;1286;66862;-34
2022/03/19 08:05:32;;;;;;;27.10;21.40;;;;;;-10378.10;;;;106039;1287;65736;-34
2022/03/19 08:07:59;;;;;;;25.40;21.00;;;;;;-10129.49;;;;106389;1284;67096;-28
2022/03/19 08:10:27;;;;;;;24.50;20.40;;;;;;-10253.80;;;;106201;1285;65683;-27
2022/03/19 08:13:04;;;;;;;26.70;21.00;;;;;;-10378.10;;;;106288;1286;65693;-27
2022/03/19 08:15:33;;;;;;;26.60;20.60;;;;;;-10253.80;;;;106151;1286;65738;-27
2022/03/19 08:18:01;;;;;;;24.20;20.00;;;;;;-10253.80;;;;106387;1284;65610;-28
2022/03/19 08:20:28;;;;;;;25.30;19.70;;;;;;-10005.19;;;;106252;1286;65588;-33
2022/03/19 08:22:56;;;;;;;24.50;19.00;;;;;;-10253.80;;;;106246;1286;65582;-33
2022/03/19 08:25:23;;;;;;;25.20;19.40;;;;;;-10129.49;;;;106214;1286;64428;-27
2022/03/19 08:27:51;;;;;;;22.60;18.90;;;;;;-10253.80;;;;106212;1284;65602;-27
2022/03/19 08:30:19;;;;;;;23.90;19.30;;;;;;-10129.49;;;;106360;1284;65557;-33
2022/03/19 08:32:46;;;;;;;25.30;19.20;;;;;;-10129.49;;;;106204;1284;65769;-33
2022/03/19 08:35:14;;;;;;;22.10;17.50;;;;;;-10129.49;;;;105996;1286;65728;-27
2022/03/19 08:37:41;;;;;;;24.00;18.30;;;;;;-10129.49;;;;106057;1287;65772;-35
2022/03/19 08:40:16;;;;;;;22.70;18.40;;;;;;-10253.80;;;;106259;1287;65713;-27
2022/03/19 08:42:51;;;;;;;22.60;18.00;;;;;;-10253.80;;;;106166;1287;65744;-27
2022/03/19 08:45:22;;;;;;;23.30;19.10;;;;;;-10378.10;;;;106379;1284;65719;-34
2022/03/19 08:47:49;;;;;;;23.60;18.10;;;;;;-10378.10;;;;106217;1287;65733;-27
2022/03/19 08:50:18;;;;;;;23.30;18.70;;;;;;-10253.80;;;;106288;1285;65610;-33
2022/03/19 08:52:45;;;;;;;23.50;18.40;;;;;;-10378.10;;;;105882;1285;65787;-33
2022/03/19 08:55:12;;;;;;;22.60;17.90;;;;;;-10253.80;;;;106211;1287;65731;-34
2022/03/19 08:57:40;;;;;;;24.10;18.60;;;;;;-10129.49;;;;106391;1284;65741;-27
2022/03/19 09:00:08;;;;;;;20.90;17.10;;;;;;-10378.10;;;;106351;1284;65595;-33
2022/03/19 09:02:35;;;;;;;20.90;17.50;;;;;;-10253.80;;;;106271;1285;65674;-33
2022/03/19 09:05:03;;;;;;;22.10;17.70;;;;;;-10129.49;;;;106366;1284;65717;-33
2022/03/19 09:07:30;;;;;;;23.10;18.30;;;;;;-10253.80;;;;106291;1286;65691;-31
2022/03/19 09:09:57;;;;;;;19.70;16.70;;;;;;-10253.80;;;;106214;1284;65575;-27
2022/03/19 09:12:26;;;;;;;22.20;17.70;;;;;;-10005.19;;;;106247;1285;65705;-27
2022/03/19 09:14:54;;;;;;;21.00;17.60;;;;;;-10253.80;;;;106314;1285;65633;-33
2022/03/19 09:17:22;;;;;;;21.60;18.00;;;;;;-10005.19;;;;105825;1287;65704;-32
2022/03/19 09:19:49;;;;;;;23.40;17.70;;;;;;-10005.19;;;;106168;1285;65741;-35
2022/03/19 09:22:17;;;;;;;23.10;17.80;;;;;;-10129.49;;;;106020;1286;65578;-39
2022/03/19 09:24:44;;;;;;;22.10;17.60;;;;;;-10129.49;;;;106434;1284;65697;-37
2022/03/19 09:27:12;;;;;;;22.40;17.60;;;;;;-10129.49;;;;106409;1284;65644;-31
2022/03/19 09:29:39;;;;;;;21.50;17.20;;;;;;-10253.80;;;;106361;1284;67132;-28
2022/03/19 09:32:07;;;;;;;19.60;16.60;;;;;;-10005.19;;;;106146;1287;65600;-28
2022/03/19 09:34:35;;;;;;;20.60;15.90;;;;;;-10005.19;;;;106320;1284;66892;-29
2022/03/19 09:37:02;;;;;;;18.70;15.80;;;;;;-10378.10;;;;106295;1284;65717;-27
2022/03/19 09:39:29;;;;;;;20.80;16.20;;;;;;-10253.80;;;;106261;1284;65595;-40
2022/03/19 09:41:58;;;;;;;18.90;15.80;;;;;;-10502.40;;;;106443;1284;65665;-36
2022/03/19 09:44:26;;;;;;;21.10;16.40;;;;;;-10129.49;;;;106488;1284;65830;-28
2022/03/19 09:46:54;;;;;;;18.80;15.80;;;;;;-10253.80;;;;106064;1284;65734;-28
2022/03/19 09:49:21;;;;;;;18.70;15.10;;;;;;-10253.80;;;;106352;1284;65777;-34
2022/03/19 09:51:54;;;;;;;17.40;14.40;;;;;;-10253.80;;;;106288;1284;65593;-34
2022/03/19 09:54:22;;;;;;;22.60;14.80;;;;;;-10253.80;;;;106374;1284;66336;-34
2022/03/19 09:56:51;;;;;;;19.90;15.10;;;;;;-10253.80;;;;106197;1284;65606;-28
2022/03/19 09:59:22;;;;;;;19.80;14.60;;;;;;-10502.40;;;;106552;1284;65605;-28
2022/03/19 10:01:50;;;;;;;20.10;15.70;;;;;;-10005.19;;;;106025;1286;65747;-29
2022/03/19 10:04:20;;;;;;;17.50;14.80;;;;;;-10378.10;;;;106110;1284;65621;-28
2022/03/19 10:09:46;;;;;;;18.70;14.30;;;;;;-10005.19;;;;106220;1284;65802;-28
2022/03/19 10:12:30;;;;;;;19.70;14.80;;;;;;-10005.19;;;;106123;1285;65624;-29
2022/03/19 10:14:58;;;;;;;;;;;;;;-10129.49;;;;106306;1284;64421;-32
2022/03/19 10:17:38;;;;;;;18.50;13.80;;;;;;-10253.80;;;;106185;1287;65692;-33
2022/03/19 10:20:12;;;;;;;20.50;13.90;;;;;;-10129.49;;;;106200;1285;66301;-28
2022/03/19 10:22:46;;;;;;;15.90;12.80;;;;;;-10253.80;;;;106522;1284;65548;-27
2022/03/19 10:25:17;;;;;;;15.20;12.30;;;;;;-10253.80;;;;106207;1286;65735;-37
2022/03/19 10:27:45;;;;;;;16.40;12.70;;;;;;-10129.49;;;;106319;1284;66003;-39
2022/03/19 10:30:28;;;;;;;18.90;12.30;;;;;;-10129.49;;;;106193;1286;65706;-29
2022/03/19 10:32:58;;;;;;;16.10;12.10;;;;;;-10129.49;;;;106220;1284;66952;-28
2022/03/19 10:35:33;;;;;;;15.60;12.00;;;;;;-10378.10;;;;106290;1284;65690;-40
2022/03/19 10:38:22;;;;;;;16.10;12.60;;;;;;-10129.49;;;;106281;1284;66178;-39
2022/03/19 10:40:53;;;;;;;16.00;11.90;;;;;;-10005.19;;;;106175;1285;65728;-27
2022/03/19 10:43:23;;;;;;;17.20;12.70;;;;;;-10253.80;;;;106248;1285;65646;-28
2022/03/19 10:45:53;;;;;;;19.40;12.60;;;;;;-10253.80;;;;106304;1285;65849;-27
2022/03/19 10:48:25;;;;;;;15.80;11.80;;;;;;-10502.40;;;;106252;1284;65609;-28
2022/03/19 10:50:53;;;;;;;17.00;11.70;;;;;;-10253.80;;;;106245;1285;65677;-27
2022/03/19 10:53:22;;;;;;;17.60;12.50;;;;;;-10129.49;;;;106041;1286;65633;-28
2022/03/19 10:55:51;;;;;;;16.70;12.40;;;;;;-10502.40;;;;106222;1285;65727;-39
2022/03/19 10:58:18;;;;;;;15.80;12.10;;;;;;-10129.49;;;;106263;1284;65741;-39
2022/03/19 11:00:50;;;;;;;18.30;12.40;;;;;;-10005.19;;;;106236;1284;65734;-39
2022/03/19 11:03:20;;;;;;;17.00;12.70;;;;;;-10626.71;;;;106327;1284;66117;-39
2022/03/19 11:05:52;;;;;;;15.40;10.80;;;;;;-10129.49;;;;106030;1285;65705;-38
2022/03/19 11:08:22;;;;;;;16.80;11.10;;;;;;-10253.80;;;;106312;1285;65696;-39
2022/03/19 11:10:50;;;;;;;15.90;11.30;;;;;;-10129.49;;;;106164;1284;65700;-28
2022/03/19 11:13:22;;;;;;;14.60;10.80;;;;;;-10253.80;;;;106231;1285;65730;-39
2022/03/19 11:15:52;;;;;;;14.00;10.30;;;;;;-10378.10;;;;106203;1286;65608;-40
2022/03/19 11:18:23;;;;;;;14.30;10.10;;;;;;-10253.80;;;;106332;1284;65717;-40
2022/03/19 11:20:50;;;;;;;14.00;10.80;;;;;;-10005.19;;;;106303;1284;65633;-34
2022/03/19 11:23:26;;;;;;;19.20;11.70;;;;;;-10502.40;;;;106478;1284;65601;-28
2022/03/19 11:25:56;;;;;;;12.60;9.60;;;;;;-10129.49;;;;106342;1285;65680;-28
2022/03/19 11:28:24;;;;;;;13.40;10.40;;;;;;-10005.19;;;;106369;1284;65804;-28
2022/03/19 11:31:09;;;;;;;14.00;10.70;;;;;;-10129.49;;;;106239;1284;65583;-32
2022/03/19 11:33:37;;;;;;;13.00;10.00;;;;;;-10253.80;;;;106057;1287;65609;-28
2022/03/19 11:36:10;;;;;;;15.20;10.70;;;;;;-10253.80;;;;106139;1284;65735;-32
2022/03/19 11:38:42;;;;;;;13.90;9.70;;;;;;-10129.49;;;;106403;1284;65694;-28
2022/03/19 11:41:29;;;;;;;14.30;11.00;;;;;;-10005.19;;;;105909;1286;65703;-34
2022/03/19 11:44:20;;;;;;;13.80;10.50;;;;;;-10253.80;;;;106374;1284;65740;-29
2022/03/19 11:47:13;;;;;;;13.80;10.10;;;;;;-10253.80;;;;106427;1284;65606;-28
2022/03/19 11:49:54;;;;;;;14.30;11.10;;;;;;-10129.49;;;;106208;1285;66442;-28
2022/03/19 11:52:25;;;;;;;12.70;10.30;;;;;;-10005.19;;;;106389;1284;65558;-28
2022/03/19 11:55:05;;;;;;;12.70;9.40;;;;;;-10253.80;;;;106217;1285;65742;-28
2022/03/19 11:58:00;;;;;;;12.40;9.10;;;;;;-10378.10;;;;106212;1284;65619;-29
2022/03/19 12:00:31;;;;;;;12.90;9.30;;;;;;-10129.49;;;;106232;1285;66013;-30
2022/03/19 12:03:06;;;;;;;12.70;9.50;;;;;;-10378.10;;;;106412;1284;65803;-29
2022/03/19 12:05:38;;;;;;;12.70;9.30;;;;;;-10253.80;;;;106419;1284;65728;-38
2022/03/19 12:08:27;;;;;;;14.30;9.50;;;;;;-10129.49;;;;106182;1285;65736;-38
2022/03/19 12:11:03;;;;;;;11.50;9.20;;;;;;-10253.80;;;;106442;1284;65731;-29
2022/03/19 12:13:30;;;;;;;13.70;9.30;;;;;;-10129.49;;;;106223;1285;65591;-29
2022/03/19 12:16:04;;;;;;;12.60;9.30;;;;;;-10253.80;;;;106379;1284;65781;-29
2022/03/19 12:18:43;;;;;;;12.10;8.70;;;;;;-10253.80;;;;106054;1286;65606;-29
2022/03/19 12:21:10;;;;;;;12.90;8.80;;;;;;-10378.10;;;;106424;1284;65666;-28
2022/03/19 12:24:11;;;;;;;11.70;9.00;;;;;;-10129.49;;;;106380;1284;66231;-28
2022/03/19 12:26:49;;;;;;;10.50;8.00;;;;;;-10129.49;;;;105992;1285;330533;-29
2022/03/19 12:29:19;;;;;;;11.90;8.30;;;;;;-10129.49;;;;106190;1284;65605;-39
2022/03/19 12:31:49;;;;;;;11.00;8.40;;;;;;-10005.19;;;;106292;1285;65779;-38
2022/03/19 12:34:21;;;;;;;10.70;7.80;;;;;;-10253.80;;;;106448;1284;65868;-29
2022/03/19 12:36:51;;;;;;;11.60;8.20;;;;;;-10378.10;;;;106268;1285;65695;-27
2022/03/19 12:39:19;;;;;;;11.80;8.60;;;;;;-10378.10;;;;106138;1285;65607;-38
2022/03/19 12:41:46;;;;;;;10.00;7.70;;;;;;-10378.10;;;;105900;1285;65628;-38
2022/03/19 12:44:29;;;;;;;10.90;7.90;;;;;;-10005.19;;;;106314;1285;65732;-43
2022/03/19 12:47:08;;;;;;;10.30;7.40;;;;;;-10253.80;;;;106083;1284;65597;-38
2022/03/19 12:49:36;;;;;;;9.70;7.30;;;;;;-10005.19;;;;106310;1285;65703;-28
2022/03/19 12:52:10;;;;;;;10.70;7.50;;;;;;-10005.19;;;;106437;1284;64337;-28
2022/03/19 12:54:45;;;;;;;10.50;7.70;;;;;;-10253.80;;;;106315;1285;66744;-38
2022/03/19 12:57:23;;;;;;;9.90;7.40;;;;;;-10129.49;;;;106428;1284;65671;-38